createdAt,value
2018-07-25T00:01:28.811Z,15.03
2018-07-25T00:03:56.666Z,15.07
2018-07-25T00:06:24.475Z,15.83
2018-07-25T00:08:52.297Z,16.27
2018-07-25T00:11:20.128Z,16.17
2018-07-25T00:13:48.018Z,15.67
2018-07-25T00:16:15.838Z,16.50
2018-07-25T00:18:43.691Z,16.43
2018-07-25T00:21:11.578Z,15.60
2018-07-25T00:23:39.422Z,16.17
2018-07-25T00:26:07.564Z,16.37
2018-07-25T00:28:35.607Z,15.63
2018-07-25T00:31:03.475Z,14.80
2018-07-25T00:33:31.361Z,15.67
2018-07-25T00:35:59.182Z,15.37
2018-07-25T00:38:27.058Z,13.53
2018-07-25T00:40:54.962Z,13.80
2018-07-25T00:43:22.799Z,12.27
2018-07-25T00:45:50.643Z,15.03
2018-07-25T00:48:18.453Z,14.30
2018-07-25T00:50:46.352Z,13.43
2018-07-25T00:53:14.205Z,13.00
2018-07-25T00:55:42.025Z,13.87
2018-07-25T00:58:09.874Z,14.43
2018-07-25T01:00:37.766Z,14.20
2018-07-25T01:03:05.666Z,15.13
2018-07-25T01:05:33.577Z,16.10
2018-07-25T01:08:01.431Z,16.60
2018-07-25T01:10:29.314Z,17.03
2018-07-25T01:12:57.254Z,15.73
2018-07-25T01:15:25.138Z,16.43
2018-07-25T01:17:53.013Z,17.67
2018-07-25T01:20:20.871Z,15.30
2018-07-25T01:22:48.718Z,15.43
2018-07-25T01:25:16.562Z,16.10
2018-07-25T01:27:44.454Z,16.03
2018-07-25T01:30:12.446Z,15.97
2018-07-25T01:32:40.305Z,16.03
2018-07-25T01:35:08.162Z,15.17
2018-07-25T01:37:36.006Z,14.77
2018-07-25T01:40:04.294Z,15.47
2018-07-25T01:42:32.206Z,15.87
2018-07-25T01:45:00.077Z,17.83
2018-07-25T01:47:27.909Z,17.70
2018-07-25T01:49:55.775Z,17.77
2018-07-25T01:52:23.672Z,17.80
2018-07-25T01:54:51.441Z,17.37
2018-07-25T01:57:19.309Z,17.30
2018-07-25T01:59:47.161Z,16.37
2018-07-25T02:02:15.030Z,15.43
2018-07-25T02:04:42.947Z,14.40
2018-07-25T02:07:10.832Z,14.93
2018-07-25T02:09:38.722Z,15.10
2018-07-25T02:12:06.586Z,15.73
2018-07-25T02:14:34.471Z,15.53
2018-07-25T02:17:02.413Z,14.77
2018-07-25T02:19:30.288Z,13.50
2018-07-25T02:21:58.129Z,14.23
2018-07-25T02:24:25.988Z,14.77
2018-07-25T02:26:53.859Z,15.87
2018-07-25T02:29:22.126Z,15.97
2018-07-25T02:31:49.977Z,14.90
2018-07-25T02:34:20.769Z,12.63
2018-07-25T02:36:49.355Z,12.70
2018-07-25T02:39:17.186Z,12.50
2018-07-25T02:41:45.446Z,11.83
2018-07-25T02:44:13.781Z,10.23
2018-07-25T02:46:41.700Z,10.90
2018-07-25T02:49:09.817Z,10.93
2018-07-25T02:51:37.682Z,9.87
2018-07-25T02:54:05.934Z,10.60
2018-07-25T02:56:33.850Z,9.30
2018-07-25T02:59:02.506Z,8.93
2018-07-25T03:01:30.386Z,9.13
2018-07-25T03:03:58.458Z,8.90
2018-07-25T03:06:26.387Z,8.80
2018-07-25T03:08:54.217Z,9.03
2018-07-25T03:11:22.081Z,8.47
2018-07-25T03:13:49.912Z,8.47
2018-07-25T03:16:17.721Z,8.23
2018-07-25T03:18:45.607Z,8.37
2018-07-25T03:21:13.380Z,8.17
2018-07-25T03:23:41.214Z,8.63
2018-07-25T03:26:09.033Z,8.67
2018-07-25T03:28:36.860Z,8.53
2018-07-25T03:31:05.211Z,8.87
2018-07-25T03:33:33.041Z,12.20
2018-07-25T03:36:00.852Z,14.00
2018-07-25T03:38:29.083Z,15.13
2018-07-25T03:40:56.972Z,15.03
2018-07-25T03:43:24.847Z,15.40
2018-07-25T03:45:52.805Z,14.47
2018-07-25T03:48:20.648Z,14.70
2018-07-25T03:50:48.499Z,14.60
2018-07-25T03:53:16.366Z,15.40
2018-07-25T03:55:44.283Z,17.67
2018-07-25T03:58:12.117Z,15.07
2018-07-25T04:00:40.070Z,15.50
2018-07-25T04:03:07.958Z,15.00
2018-07-25T04:05:35.795Z,15.37
2018-07-25T04:08:03.829Z,16.33
2018-07-25T04:10:31.674Z,14.47
2018-07-25T04:12:59.526Z,14.53
2018-07-25T04:15:27.413Z,15.53
2018-07-25T04:17:55.261Z,14.60
2018-07-25T04:20:23.100Z,14.57
2018-07-25T04:22:50.937Z,13.80
2018-07-25T04:25:18.759Z,10.27
2018-07-25T04:27:46.890Z,11.17
2018-07-25T04:30:15.825Z,13.10
2018-07-25T04:32:44.302Z,15.30
2018-07-25T04:35:13.269Z,12.03
2018-07-25T04:37:41.553Z,12.50
2018-07-25T04:40:09.385Z,11.00
2018-07-25T04:42:37.556Z,11.40
2018-07-25T04:45:06.741Z,11.43
2018-07-25T04:47:34.638Z,13.70
2018-07-25T04:50:02.570Z,15.33
2018-07-25T04:52:30.401Z,16.13
2018-07-25T04:54:58.280Z,15.60
2018-07-25T04:57:26.171Z,14.70
2018-07-25T04:59:54.030Z,14.50
2018-07-25T05:02:21.866Z,13.50
2018-07-25T05:04:49.706Z,14.90
2018-07-25T05:07:17.614Z,13.93
2018-07-25T05:09:45.507Z,12.67
2018-07-25T05:12:13.354Z,13.20
2018-07-25T05:14:41.288Z,12.50
2018-07-25T05:17:09.163Z,12.70
2018-07-25T05:22:10.397Z,11.50
2018-07-25T05:24:38.245Z,11.63
2018-07-25T05:27:06.141Z,10.90
2018-07-25T05:29:34.009Z,10.60
2018-07-25T05:32:01.869Z,10.27
2018-07-25T05:34:29.715Z,9.60
2018-07-25T05:36:57.562Z,9.57
2018-07-25T05:39:25.448Z,9.57
2018-07-25T05:41:53.297Z,8.90
2018-07-25T05:44:21.165Z,8.33
2018-07-25T05:46:48.989Z,9.63
2018-07-25T05:49:16.851Z,8.63
2018-07-25T05:51:44.698Z,9.10
2018-07-25T05:54:12.565Z,8.83
2018-07-25T05:56:40.488Z,9.07
2018-07-25T05:59:08.302Z,7.97
2018-07-25T06:01:36.152Z,7.93
2018-07-25T06:04:04.069Z,8.03
2018-07-25T06:06:31.933Z,8.40
2018-07-25T06:09:00.082Z,7.83
2018-07-25T06:11:27.999Z,8.20
2018-07-25T06:13:55.821Z,7.63
2018-07-25T06:16:23.635Z,7.87
2018-07-25T06:18:51.466Z,8.23
2018-07-25T06:21:19.342Z,8.00
2018-07-25T06:23:47.186Z,8.77
2018-07-25T06:26:15.061Z,8.60
2018-07-25T06:28:42.886Z,8.17
2018-07-25T06:31:10.751Z,8.80
2018-07-25T06:33:38.653Z,8.30
2018-07-25T06:36:06.787Z,8.80
2018-07-25T06:38:34.653Z,7.90
2018-07-25T06:41:02.557Z,7.93
2018-07-25T06:43:30.444Z,8.20
2018-07-25T06:45:58.274Z,8.07
2018-07-25T06:48:26.095Z,8.20
2018-07-25T06:50:53.962Z,8.87
2018-07-25T06:53:21.890Z,9.23
2018-07-25T06:55:50.134Z,9.73
2018-07-25T06:58:18.010Z,8.87
2018-07-25T07:00:45.814Z,8.53
2018-07-25T07:03:13.727Z,8.67
2018-07-25T07:05:41.594Z,8.43
2018-07-25T07:08:09.505Z,9.03
2018-07-25T07:10:37.357Z,10.37
2018-07-25T07:13:05.253Z,10.70
2018-07-25T07:15:33.125Z,10.33
2018-07-25T07:18:00.970Z,10.57
2018-07-25T07:20:28.829Z,11.60
2018-07-25T07:22:56.610Z,10.77
2018-07-25T07:25:24.418Z,11.23
2018-07-25T07:27:52.207Z,10.97
2018-07-25T07:30:20.034Z,11.20
2018-07-25T07:32:47.826Z,10.40
2018-07-25T07:35:15.636Z,9.70
2018-07-25T07:37:43.492Z,9.50
2018-07-25T07:40:11.382Z,10.93
2018-07-25T07:42:39.234Z,10.60
2018-07-25T07:45:08.009Z,10.50
2018-07-25T07:47:35.912Z,10.47
2018-07-25T07:50:04.314Z,11.13
2018-07-25T07:52:32.125Z,10.90
2018-07-25T07:54:59.962Z,10.70
2018-07-25T07:57:27.777Z,11.07
2018-07-25T07:59:55.607Z,11.40
2018-07-25T08:02:23.446Z,11.30
2018-07-25T08:04:51.291Z,11.30
2018-07-25T08:07:19.113Z,10.83
2018-07-25T08:09:46.938Z,10.50
2018-07-25T08:12:14.742Z,11.43
2018-07-25T08:14:42.521Z,10.23
2018-07-25T08:17:10.325Z,10.23
2018-07-25T08:19:38.143Z,10.70
2018-07-25T08:22:05.962Z,10.63
2018-07-25T08:24:33.765Z,11.43
2018-07-25T08:27:01.554Z,11.50
2018-07-25T08:29:29.351Z,11.40
2018-07-25T08:31:57.170Z,11.40
2018-07-25T08:34:24.965Z,10.87
2018-07-25T08:36:52.775Z,11.23
2018-07-25T08:39:20.570Z,11.97
2018-07-25T08:41:48.386Z,12.13
2018-07-25T08:44:16.165Z,11.20
2018-07-25T08:46:44.033Z,12.03
2018-07-25T08:49:12.542Z,12.00
2018-07-25T08:51:40.385Z,11.60
2018-07-25T08:54:08.165Z,11.50
2018-07-25T08:56:35.955Z,10.30
2018-07-25T08:59:03.826Z,10.13
2018-07-25T09:01:31.619Z,10.30
2018-07-25T09:03:59.532Z,9.73
2018-07-25T09:06:27.389Z,10.37
2018-07-25T09:08:55.275Z,10.73
2018-07-25T09:11:26.105Z,11.00
2018-07-25T09:13:53.995Z,10.60
2018-07-25T09:16:21.890Z,12.80
2018-07-25T09:18:49.670Z,14.63
2018-07-25T09:21:17.530Z,14.90
2018-07-25T09:23:45.646Z,11.40
2018-07-25T09:26:13.458Z,9.97
2018-07-25T09:28:41.359Z,9.57
2018-07-25T09:31:09.245Z,10.63
2018-07-25T09:33:37.079Z,9.83
2018-07-25T09:36:04.983Z,12.10
2018-07-25T09:38:32.785Z,18.37
2018-07-25T09:41:00.875Z,19.07
2018-07-25T09:43:28.636Z,14.70
2018-07-25T09:45:56.427Z,12.63
2018-07-25T09:48:24.603Z,11.73
2018-07-25T09:50:52.394Z,11.83
2018-07-25T09:53:20.274Z,11.37
2018-07-25T09:55:48.071Z,11.37
2018-07-25T09:58:15.873Z,10.17
2018-07-25T10:00:46.700Z,11.80
2018-07-25T10:03:14.750Z,10.40
2018-07-25T10:05:42.709Z,12.40
2018-07-25T10:08:10.560Z,13.53
2018-07-25T10:10:38.416Z,13.70
2018-07-25T10:13:06.628Z,14.23
2018-07-25T10:15:34.545Z,14.77
2018-07-25T10:18:02.579Z,15.63
2018-07-25T10:20:30.397Z,14.83
2018-07-25T10:22:58.189Z,14.93
2018-07-25T10:25:26.019Z,17.40
2018-07-25T10:27:53.866Z,14.63
2018-07-25T10:30:21.926Z,12.40
2018-07-25T10:32:49.818Z,11.90
2018-07-25T10:35:17.612Z,12.23
2018-07-25T10:37:45.491Z,11.07
2018-07-25T10:40:13.292Z,13.50
2018-07-25T10:42:41.140Z,12.40
2018-07-25T10:45:10.030Z,11.70
2018-07-25T10:47:38.344Z,12.73
2018-07-25T10:50:06.790Z,11.27
2018-07-25T10:52:34.726Z,13.30
2018-07-25T10:55:02.658Z,12.23
2018-07-25T10:57:30.698Z,14.13
2018-07-25T10:59:58.522Z,13.40
2018-07-25T11:02:26.370Z,12.70
2018-07-25T11:04:54.157Z,12.00
2018-07-25T11:07:21.990Z,13.47
2018-07-25T11:09:49.929Z,12.30
2018-07-25T11:12:18.514Z,11.70
2018-07-25T11:14:46.353Z,12.40
2018-07-25T11:17:14.183Z,12.77
2018-07-25T11:19:41.962Z,13.10
2018-07-25T11:22:09.775Z,12.83
2018-07-25T11:24:37.626Z,12.40
2018-07-25T11:27:05.569Z,11.87
2018-07-25T11:29:33.357Z,12.40
2018-07-25T11:32:01.182Z,11.50
2018-07-25T11:34:28.975Z,11.23
2018-07-25T11:36:56.783Z,11.47
2018-07-25T11:39:24.639Z,11.07
2018-07-25T11:41:52.490Z,10.30
2018-07-25T11:44:20.645Z,11.33
2018-07-25T11:46:48.442Z,9.70
2018-07-25T11:49:16.265Z,9.93
2018-07-25T11:51:44.115Z,10.07
2018-07-25T11:54:12.153Z,10.23
2018-07-25T11:56:39.966Z,9.37
2018-07-25T11:59:07.816Z,9.73
2018-07-25T12:01:35.583Z,9.60
2018-07-25T12:04:03.602Z,8.83
2018-07-25T12:06:31.514Z,8.23
2018-07-25T12:08:59.546Z,7.80
2018-07-25T12:11:27.390Z,9.10
2018-07-25T12:13:55.203Z,8.90
2018-07-25T12:16:23.047Z,10.03
2018-07-25T12:18:50.909Z,9.07
2018-07-25T12:21:18.746Z,10.30
2018-07-25T12:23:46.572Z,9.97
2018-07-25T12:26:14.401Z,10.47
2018-07-25T12:28:42.262Z,9.20
2018-07-25T12:31:10.120Z,11.97
2018-07-25T12:33:38.336Z,13.00
2018-07-25T12:36:06.609Z,13.37
2018-07-25T12:38:34.422Z,13.40
2018-07-25T12:41:02.317Z,13.93
2018-07-25T12:43:30.127Z,13.00
2018-07-25T12:45:57.957Z,13.10
2018-07-25T12:48:25.768Z,10.77
2018-07-25T12:50:53.609Z,11.87
2018-07-25T12:53:21.544Z,11.90
2018-07-25T12:55:49.364Z,11.30
2018-07-25T12:58:17.225Z,11.43
2018-07-25T13:00:45.095Z,11.27
2018-07-25T13:03:13.368Z,11.17
2018-07-25T13:05:41.573Z,11.57
2018-07-25T13:08:09.385Z,10.83
2018-07-25T13:10:37.320Z,10.70
2018-07-25T13:13:05.174Z,11.63
2018-07-25T13:15:33.088Z,11.17
2018-07-25T13:18:01.028Z,11.83
2018-07-25T13:20:28.877Z,9.40
2018-07-25T13:22:56.780Z,10.33
2018-07-25T13:25:24.661Z,10.20
2018-07-25T13:27:52.423Z,10.40
2018-07-25T13:30:20.272Z,11.07
2018-07-25T13:32:48.081Z,10.20
2018-07-25T13:35:15.908Z,9.97
2018-07-25T13:37:43.780Z,9.60
2018-07-25T13:40:10.941Z,10.50
2018-07-25T13:42:38.770Z,10.00
2018-07-25T13:45:06.665Z,9.37
2018-07-25T13:47:34.841Z,9.00
2018-07-25T13:50:03.359Z,9.70
2018-07-25T13:52:31.213Z,9.90
2018-07-25T13:54:59.097Z,9.50
2018-07-25T13:57:26.917Z,9.20
2018-07-25T13:59:54.751Z,9.63
2018-07-25T14:02:22.553Z,8.73
2018-07-25T14:04:50.341Z,8.77
2018-07-25T14:07:18.265Z,8.07
2018-07-25T14:09:46.062Z,8.43
2018-07-25T14:12:13.957Z,8.63
2018-07-25T14:14:41.738Z,8.70
2018-07-25T14:17:09.623Z,8.33
2018-07-25T14:19:37.495Z,8.30
2018-07-25T14:22:05.706Z,7.97
2018-07-25T14:24:33.619Z,8.17
2018-07-25T14:27:01.505Z,8.67
2018-07-25T14:29:29.425Z,8.20
2018-07-25T14:31:57.183Z,9.00
2018-07-25T14:34:25.008Z,8.53
2018-07-25T14:36:52.850Z,8.43
2018-07-25T14:39:20.715Z,9.00
2018-07-25T14:41:48.576Z,9.07
2018-07-25T14:44:16.650Z,9.07
2018-07-25T14:46:44.813Z,9.97
2018-07-25T14:49:12.611Z,9.97
2018-07-25T14:51:40.431Z,10.07
2018-07-25T14:54:08.521Z,9.50
2018-07-25T14:56:36.472Z,8.93
2018-07-25T14:59:04.435Z,8.50
2018-07-25T15:01:32.399Z,9.90
2018-07-25T15:04:00.302Z,10.20
2018-07-25T15:06:28.178Z,9.43
2018-07-25T15:08:56.034Z,9.63
2018-07-25T15:11:23.941Z,9.90
2018-07-25T15:13:51.801Z,8.33
2018-07-25T15:16:19.746Z,10.83
2018-07-25T15:18:47.796Z,8.87
2018-07-25T15:21:15.650Z,8.57
2018-07-25T15:23:54.434Z,7.87
2018-07-25T15:26:22.374Z,7.83
2018-07-25T15:28:50.182Z,8.70
2018-07-25T15:31:18.039Z,6.90
2018-07-25T15:33:46.040Z,5.87
2018-07-25T15:36:35.130Z,7.73
2018-07-25T15:39:03.645Z,7.10
2018-07-25T15:42:02.175Z,7.63
2018-07-25T15:44:30.054Z,6.90
2018-07-25T15:46:58.061Z,7.50
2018-07-25T15:49:25.939Z,8.43
2018-07-25T15:51:53.853Z,6.90
2018-07-25T15:54:21.761Z,8.13
2018-07-25T15:56:49.841Z,7.73
2018-07-25T15:59:17.908Z,4.57
2018-07-25T16:01:45.917Z,4.23
2018-07-25T16:04:13.820Z,5.13
2018-07-25T16:06:41.645Z,4.53
2018-07-25T16:09:10.889Z,3.97
2018-07-25T16:11:39.303Z,5.03
2018-07-25T16:14:07.398Z,4.97
2018-07-25T16:16:35.348Z,6.27
2018-07-25T16:19:03.358Z,6.30
2018-07-25T16:21:31.265Z,6.27
2018-07-25T16:23:59.140Z,6.80
2018-07-25T16:26:27.024Z,7.97
2018-07-25T16:28:54.897Z,7.60
2018-07-25T16:31:22.704Z,6.97
2018-07-25T16:33:50.606Z,8.20
2018-07-25T16:36:18.481Z,8.40
2018-07-25T16:38:46.490Z,8.33
2018-07-25T16:41:14.356Z,9.53
2018-07-25T16:43:42.316Z,8.77
2018-07-25T16:46:10.214Z,8.53
2018-07-25T16:48:38.075Z,8.23
2018-07-25T16:51:06.036Z,6.60
2018-07-25T16:53:33.880Z,6.40
2018-07-25T16:56:01.748Z,7.40
2018-07-25T16:58:29.647Z,7.60
2018-07-25T17:00:57.560Z,8.23
2018-07-25T17:03:25.461Z,7.97
2018-07-25T17:05:53.294Z,7.40
2018-07-25T17:08:21.164Z,9.07
2018-07-25T17:10:48.957Z,8.87
2018-07-25T17:13:16.801Z,7.90
2018-07-25T17:15:44.626Z,8.53
2018-07-25T17:18:12.673Z,9.07
2018-07-25T17:20:40.498Z,9.07
2018-07-25T17:23:08.397Z,10.13
2018-07-25T17:25:36.252Z,9.77
2018-07-25T17:28:04.416Z,10.07
2018-07-25T17:30:32.247Z,10.00
2018-07-25T17:33:00.112Z,9.57
2018-07-25T17:35:27.997Z,8.87
2018-07-25T17:37:55.903Z,8.80
2018-07-25T17:40:23.796Z,8.37
2018-07-25T17:42:51.660Z,9.57
2018-07-25T17:45:19.530Z,9.97
2018-07-25T17:47:47.397Z,10.70
2018-07-25T17:50:15.304Z,10.27
2018-07-25T17:52:43.160Z,12.20
2018-07-25T17:55:11.056Z,11.50
2018-07-25T17:57:38.935Z,11.77
2018-07-25T18:00:09.266Z,11.03
2018-07-25T18:02:37.118Z,13.40
2018-07-25T18:05:05.605Z,12.10
2018-07-25T18:07:33.551Z,14.60
2018-07-25T18:10:01.419Z,13.40
2018-07-25T18:12:29.330Z,13.40
2018-07-25T18:14:58.582Z,13.80
2018-07-25T18:17:26.433Z,14.70
2018-07-25T18:19:54.257Z,11.73
2018-07-25T18:22:22.062Z,9.70
2018-07-25T18:24:50.027Z,8.77
2018-07-25T18:27:17.906Z,8.30
2018-07-25T18:29:45.734Z,10.63
2018-07-25T18:32:13.580Z,10.47
2018-07-25T18:34:41.489Z,8.50
2018-07-25T18:37:09.382Z,7.73
2018-07-25T18:39:37.233Z,6.23
2018-07-25T18:42:05.112Z,7.77
2018-07-25T18:44:33.008Z,5.70
2018-07-25T18:47:00.948Z,6.50
2018-07-25T18:49:28.786Z,6.97
2018-07-25T18:54:45.809Z,5.83
2018-07-25T18:57:13.681Z,6.80
2018-07-25T18:59:41.525Z,8.00
2018-07-25T19:02:09.462Z,8.30
2018-07-25T19:04:37.407Z,7.03
2018-07-25T19:07:05.307Z,7.53
2018-07-25T19:09:33.138Z,8.17
2018-07-25T19:12:01.001Z,7.23
2018-07-25T19:14:34.461Z,7.77
2018-07-25T19:17:02.304Z,8.63
2018-07-25T19:19:30.217Z,9.17
2018-07-25T19:21:58.036Z,8.33
2018-07-25T19:24:25.837Z,8.10
2018-07-25T19:26:53.670Z,9.30
2018-07-25T19:29:21.585Z,8.43
2018-07-25T19:31:49.412Z,9.87
2018-07-25T19:34:17.252Z,9.20
2018-07-25T19:36:45.078Z,6.80
2018-07-25T19:39:12.889Z,6.53
2018-07-25T19:41:40.713Z,5.70
2018-07-25T19:44:08.513Z,5.73
2018-07-25T19:46:36.365Z,6.20
2018-07-25T19:49:04.204Z,5.47
2018-07-25T19:51:32.073Z,5.80
2018-07-25T19:53:59.896Z,5.43
2018-07-25T19:56:27.944Z,5.47
2018-07-25T19:58:55.921Z,5.33
2018-07-25T20:01:23.754Z,5.17
2018-07-25T20:03:51.584Z,3.37
2018-07-25T20:06:19.505Z,4.33
2018-07-25T20:08:47.342Z,3.50
2018-07-25T20:11:15.189Z,3.40
2018-07-25T20:13:48.552Z,3.73
2018-07-25T20:16:16.400Z,3.90
2018-07-25T20:18:44.252Z,4.27
2018-07-25T20:21:12.073Z,4.70
2018-07-25T20:23:39.877Z,6.60
2018-07-25T20:26:07.667Z,5.67
2018-07-25T20:28:35.458Z,6.40
2018-07-25T20:31:03.328Z,6.27
2018-07-25T20:33:31.221Z,6.07
2018-07-25T20:35:59.126Z,6.80
2018-07-25T20:38:26.917Z,6.90
2018-07-25T20:40:54.784Z,6.37
2018-07-25T20:43:22.633Z,7.27
2018-07-25T20:45:50.436Z,5.50
2018-07-25T20:48:18.291Z,5.80
2018-07-25T20:50:46.104Z,5.07
2018-07-25T20:53:13.942Z,6.17
2018-07-25T20:55:41.825Z,6.40
2018-07-25T20:58:09.690Z,6.10
2018-07-25T21:00:37.576Z,5.77
2018-07-25T21:03:06.592Z,5.90
2018-07-25T21:05:34.755Z,5.63
2018-07-25T21:08:02.595Z,5.87
2018-07-25T21:10:30.504Z,5.30
2018-07-25T21:12:58.357Z,6.20
2018-07-25T21:15:26.247Z,6.03
2018-07-25T21:17:54.117Z,6.40
2018-07-25T21:20:22.185Z,6.73
2018-07-25T21:22:50.098Z,6.47
2018-07-25T21:25:17.904Z,6.10
2018-07-25T21:27:45.841Z,7.67
2018-07-25T21:30:13.782Z,7.50
2018-07-25T21:32:41.957Z,7.43
2018-07-25T21:35:09.973Z,7.17
2018-07-25T21:37:37.923Z,6.97
2018-07-25T21:40:05.864Z,7.80
2018-07-25T21:42:33.849Z,8.17
2018-07-25T21:45:01.802Z,8.70
2018-07-25T21:47:29.749Z,8.67
2018-07-25T21:49:57.673Z,7.43
2018-07-25T21:52:25.557Z,7.73
2018-07-25T21:54:53.457Z,8.30
2018-07-25T21:57:21.448Z,8.53
2018-07-25T21:59:49.377Z,7.20
2018-07-25T22:02:17.323Z,7.47
2018-07-25T22:04:45.240Z,7.23
2018-07-25T22:07:13.158Z,7.30
2018-07-25T22:09:41.108Z,7.67
2018-07-25T22:12:09.034Z,7.63
2018-07-25T22:14:36.980Z,7.33
2018-07-25T22:17:05.078Z,7.70
2018-07-25T22:19:33.149Z,6.50
2018-07-25T22:22:01.063Z,6.93
2018-07-25T22:24:28.979Z,6.10
2018-07-25T22:26:56.894Z,6.50
2018-07-25T22:29:24.831Z,6.67
2018-07-25T22:31:52.756Z,6.42
2018-07-25T22:34:20.563Z,6.50
2018-07-25T22:36:48.418Z,7.30
2018-07-25T22:39:16.195Z,7.20
2018-07-25T22:41:43.965Z,7.07
2018-07-25T22:44:11.745Z,6.57
2018-07-25T22:46:39.509Z,6.70
2018-07-25T22:49:07.250Z,6.73
2018-07-25T22:51:35.038Z,6.63
2018-07-25T22:54:02.817Z,7.17
2018-07-25T22:56:30.602Z,6.77
2018-07-25T22:58:58.373Z,7.00
2018-07-25T23:01:26.170Z,6.63
2018-07-25T23:03:53.963Z,6.80
2018-07-25T23:06:21.790Z,6.57
2018-07-25T23:08:49.582Z,7.07
2018-07-25T23:11:17.365Z,8.23
2018-07-25T23:13:46.460Z,6.93
2018-07-25T23:16:15.665Z,7.37
2018-07-25T23:18:43.633Z,8.07
2018-07-25T23:21:11.443Z,8.73
2018-07-25T23:23:39.224Z,8.93
2018-07-25T23:26:06.973Z,8.90
2018-07-25T23:28:34.737Z,9.03
2018-07-25T23:31:02.521Z,8.77
2018-07-25T23:33:30.281Z,8.97
2018-07-25T23:35:58.056Z,9.27
2018-07-25T23:38:25.833Z,8.53
2018-07-25T23:40:53.597Z,9.10
2018-07-25T23:43:21.388Z,8.27
2018-07-25T23:45:49.178Z,8.93
2018-07-25T23:48:16.994Z,7.50
2018-07-25T23:50:44.774Z,8.10
2018-07-25T23:53:12.542Z,7.80
2018-07-25T23:55:40.326Z,7.17
2018-07-25T23:58:08.122Z,8.00
